Time;durP1;ratioP1;P1;durP2;ratioP2;P2;SDS_P1;SDS_P2;PMS_P1;PMS_P2;Temp;Humidity;BMP_temperature;BMP_pressure;BME280_temperature;BME280_humidity;BME280_pressure;Samples;Min_cycle;Max_cycle;Signal;HPM_P1;HPM_P2
2023/12/25 00:02:38;;;;;;;4.10;0.87;;;6.40;99.90;;;;;;9816624;30;20292;-84
2023/12/25 00:08:00;;;;;;;7.27;1.53;;;6.30;99.90;;;;;;9816007;30;20271;-79
2023/12/25 00:13:21;;;;;;;11.30;1.63;;;6.30;99.90;;;;;;9803584;30;20520;-80
2023/12/25 00:18:42;;;;;;;7.83;1.57;;;6.30;99.90;;;;;;9799084;30;20206;-78
2023/12/25 00:24:04;;;;;;;4.80;1.47;;;6.20;99.90;;;;;;9810192;30;20233;-80
2023/12/25 00:29:25;;;;;;;8.93;1.70;;;6.20;99.90;;;;;;9809647;30;20228;-79
2023/12/25 00:34:48;;;;;;;10.47;2.00;;;6.10;99.90;;;;;;9797748;30;20245;-84
2023/12/25 00:40:10;;;;;;;8.63;2.30;;;6.10;99.90;;;;;;9822321;30;20208;-81
2023/12/25 00:45:31;;;;;;;9.33;1.93;;;6.10;99.90;;;;;;9797455;30;20219;-86
2023/12/25 00:50:52;;;;;;;9.67;2.80;;;6.10;99.90;;;;;;9822005;30;20245;-82
2023/12/25 00:56:13;;;;;;;10.70;2.20;;;6.10;99.90;;;;;;9820978;30;20256;-82
2023/12/25 01:01:35;;;;;;;6.90;1.70;;;6.20;99.90;;;;;;9808991;30;20208;-79
2023/12/25 01:06:56;;;;;;;10.63;1.73;;;6.20;99.90;;;;;;9808881;30;20205;-83
2023/12/25 01:12:18;;;;;;;11.13;2.30;;;6.10;99.90;;;;;;9821096;30;20259;-84
2023/12/25 01:17:39;;;;;;;13.23;2.27;;;6.00;99.90;;;;;;9808195;30;20540;-80
2023/12/25 01:23:00;;;;;;;16.97;2.83;;;6.10;99.90;;;;;;9820987;30;20397;-85
2023/12/25 01:28:22;;;;;;;15.13;3.20;;;6.10;99.90;;;;;;9807334;30;20300;-82
2023/12/25 01:33:43;;;;;;;15.77;3.57;;;6.20;99.90;;;;;;9820228;30;20205;-79
2023/12/25 01:39:04;;;;;;;18.83;3.70;;;6.20;99.90;;;;;;9820236;30;20236;-81
2023/12/25 01:44:25;;;;;;;18.37;3.30;;;6.20;99.90;;;;;;9819837;30;20459;-81
2023/12/25 01:49:47;;;;;;;26.57;4.17;;;6.20;99.90;;;;;;9819887;30;20607;-84
2023/12/25 01:55:09;;;;;;;23.73;3.73;;;6.20;99.90;;;;;;9819698;30;20238;-80
2023/12/25 02:00:30;;;;;;;22.37;3.67;;;6.20;99.90;;;;;;9818236;30;20225;-82
2023/12/25 02:05:51;;;;;;;22.70;3.63;;;6.20;99.90;;;;;;9819272;30;20208;-79
2023/12/25 02:11:12;;;;;;;26.00;3.83;;;6.20;99.90;;;;;;9818751;30;20216;-79
2023/12/25 02:16:36;;;;;;;17.77;3.23;;;6.30;99.90;;;;;;9823291;30;20586;-79
2023/12/25 02:21:59;;;;;;;23.07;3.30;;;6.30;99.90;;;;;;9784434;30;20211;-79
2023/12/25 02:27:20;;;;;;;23.63;3.80;;;6.30;99.90;;;;;;9782340;30;20217;-86
2023/12/25 02:32:41;;;;;;;21.27;3.00;;;6.30;99.90;;;;;;9818222;30;20252;-82
2023/12/25 02:38:02;;;;;;;16.57;3.40;;;6.30;99.90;;;;;;9793967;30;20238;-80
2023/12/25 02:43:24;;;;;;;25.17;3.37;;;6.40;99.90;;;;;;9817446;30;20216;-79
2023/12/25 02:48:45;;;;;;;19.80;2.67;;;6.40;99.90;;;;;;9816090;30;20564;-85
2023/12/25 02:54:06;;;;;;;19.00;3.03;;;6.40;99.90;;;;;;9786776;30;20221;-80
2023/12/25 02:59:27;;;;;;;17.40;3.27;;;6.50;99.90;;;;;;9792745;30;20213;-80
2023/12/25 03:04:49;;;;;;;15.50;3.07;;;6.50;99.90;;;;;;9817579;30;20284;-79
2023/12/25 03:10:10;;;;;;;22.10;3.47;;;6.40;99.90;;;;;;9804800;30;20219;-79
2023/12/25 03:15:32;;;;;;;19.73;3.07;;;6.40;99.90;;;;;;9792727;30;20233;-80
2023/12/25 03:20:54;;;;;;;14.57;2.60;;;6.50;99.90;;;;;;9803608;30;20364;-81
2023/12/25 03:26:16;;;;;;;17.23;3.03;;;6.60;11.50;;;;;;9791815;30;20235;-78
2023/12/25 03:31:37;;;;;;;12.47;2.00;;;6.60;99.90;;;;;;9804570;30;20524;-79
2023/12/25 03:36:59;;;;;;;16.83;2.23;;;6.60;16.70;;;;;;9816813;30;20316;-78
2023/12/25 03:42:20;;;;;;;16.67;3.07;;;6.60;99.90;;;;;;9791171;30;20249;-80
2023/12/25 03:47:42;;;;;;;17.03;3.10;;;6.70;1.00;;;;;;9816550;30;20250;-79
2023/12/25 03:53:03;;;;;;;15.33;3.23;;;6.50;1.00;;;;;;9821623;30;20243;-86
2023/12/25 03:58:24;;;;;;;16.43;2.53;;;6.50;1.00;;;;;;9811224;30;20314;-81
2023/12/25 04:03:46;;;;;;;17.57;2.30;;;6.50;81.40;;;;;;9809785;30;20297;-79
2023/12/25 04:09:07;;;;;;;12.17;2.23;;;6.60;1.00;;;;;;9798856;30;20216;-83
2023/12/25 04:14:28;;;;;;;12.20;2.47;;;6.60;1.00;;;;;;9798462;30;20238;-82
2023/12/25 04:19:50;;;;;;;14.57;2.20;;;6.60;99.90;;;;;;9823220;30;20203;-85
2023/12/25 04:25:11;;;;;;;15.13;2.30;;;6.70;99.90;;;;;;9797599;30;20215;-82
2023/12/25 04:30:33;;;;;;;16.17;2.93;;;6.70;99.90;;;;;;9810315;30;20464;-85
2023/12/25 04:35:55;;;;;;;10.70;2.13;;;6.80;99.90;;;;;;9797905;30;20241;-85
2023/12/25 04:41:21;;;;;;;11.47;1.97;;;6.70;1.00;;;;;;9822384;30;20257;-79
2023/12/25 04:46:43;;;;;;;13.77;2.30;;;6.70;1.00;;;;;;9797723;30;20216;-83
2023/12/25 04:52:04;;;;;;;16.60;2.40;;;6.80;1.00;;;;;;9822056;30;20209;-85
2023/12/25 04:57:26;;;;;;;15.90;3.20;;;6.70;1.00;;;;;;9820885;30;20257;-80
2023/12/25 05:02:47;;;;;;;15.13;2.43;;;6.80;99.90;;;;;;9809135;30;20202;-81
2023/12/25 05:08:08;;;;;;;14.07;2.80;;;6.80;1.00;;;;;;9809036;30;20237;-85
2023/12/25 05:13:30;;;;;;;12.33;2.23;;;6.80;1.00;;;;;;9804735;30;20213;-78
2023/12/25 05:18:51;;;;;;;17.53;2.30;;;6.80;99.90;;;;;;9799879;30;20258;-78
2023/12/25 05:24:13;;;;;;;11.23;2.50;;;6.70;1.00;;;;;;9806691;30;20267;-80
2023/12/25 05:29:34;;;;;;;18.43;2.90;;;6.60;1.00;;;;;;9821351;30;20209;-85
2023/12/25 05:34:55;;;;;;;10.83;2.13;;;6.60;1.00;;;;;;9820624;30;20456;-81
2023/12/25 05:40:16;;;;;;;8.17;2.03;;;6.60;99.90;;;;;;9795936;30;20212;-82
2023/12/25 05:45:38;;;;;;;14.67;1.70;;;6.60;1.00;;;;;;9821124;30;20281;-82
2023/12/25 05:50:59;;;;;;;13.77;2.70;;;6.50;1.00;;;;;;9820137;30;20464;-80
2023/12/25 05:56:21;;;;;;;12.63;2.40;;;6.50;1.00;;;;;;9806780;30;20459;-80
2023/12/25 06:01:43;;;;;;;12.70;2.37;;;6.50;1.00;;;;;;9807005;30;20210;-79
2023/12/25 06:07:04;;;;;;;12.17;2.23;;;6.50;99.90;;;;;;9819244;30;20210;-85
2023/12/25 06:12:25;;;;;;;11.20;2.07;;;6.60;99.90;;;;;;9806946;30;20314;-85
2023/12/25 06:17:46;;;;;;;9.63;1.90;;;6.50;1.00;;;;;;9806855;30;20230;-80
2023/12/25 06:23:08;;;;;;;9.30;1.87;;;6.60;99.90;;;;;;9805413;30;20225;-82
2023/12/25 06:28:29;;;;;;;14.07;2.03;;;6.50;99.90;;;;;;9806903;30;20210;-87
2023/12/25 06:33:51;;;;;;;11.43;1.77;;;6.40;99.90;;;;;;9818631;30;20210;-84
2023/12/25 06:39:12;;;;;;;14.93;2.10;;;6.30;1.00;;;;;;9794480;30;20252;-86
2023/12/25 06:44:34;;;;;;;16.50;2.23;;;6.30;1.00;;;;;;9818406;30;20263;-83
2023/12/25 06:49:56;;;;;;;14.57;1.93;;;6.50;99.90;;;;;;9805927;30;20264;-86
2023/12/25 06:55:17;;;;;;;14.07;2.27;;;6.60;1.00;;;;;;9817315;30;20312;-87
2023/12/25 07:00:39;;;;;;;11.60;2.60;;;6.60;99.90;;;;;;9805889;30;20214;-85
2023/12/25 07:06:01;;;;;;;14.53;2.37;;;6.70;1.00;;;;;;9817657;30;20205;-82
2023/12/25 07:11:22;;;;;;;8.80;1.87;;;6.80;1.00;;;;;;9793396;30;20272;-86
2023/12/25 07:16:43;;;;;;;12.40;2.13;;;6.60;86.90;;;;;;9817346;30;20233;-85
2023/12/25 07:22:05;;;;;;;10.10;2.07;;;6.50;99.90;;;;;;9794817;30;20212;-81
2023/12/25 07:27:26;;;;;;;12.37;2.07;;;6.50;99.90;;;;;;9821229;30;20221;-88
2023/12/25 07:32:47;;;;;;;15.23;2.00;;;6.50;1.00;;;;;;9800628;30;20256;-86
2023/12/25 07:38:08;;;;;;;12.87;2.07;;;6.50;1.00;;;;;;9826012;30;20435;-89
2023/12/25 07:43:31;;;;;;;11.50;2.20;;;6.50;1.00;;;;;;9824946;30;20557;-82
2023/12/25 07:48:53;;;;;;;12.40;2.67;;;6.40;1.00;;;;;;9812364;30;20479;-85
2023/12/25 07:54:15;;;;;;;12.50;2.43;;;6.60;1.00;;;;;;9799717;30;20289;-88
2023/12/25 07:59:36;;;;;;;16.57;3.53;;;6.60;1.00;;;;;;9824689;30;20210;-84
2023/12/25 08:04:57;;;;;;;17.23;3.27;;;6.70;1.00;;;;;;9811953;30;20263;-87
2023/12/25 08:10:19;;;;;;;11.50;3.30;;;6.80;1.00;;;;;;9811300;30;20439;-87
2023/12/25 08:15:40;;;;;;;17.97;3.17;;;6.90;1.00;;;;;;9811411;30;20436;-87
2023/12/25 08:21:03;;;;;;;11.97;2.70;;;6.90;1.00;;;;;;9800429;30;20289;-87
2023/12/25 08:26:25;;;;;;;20.77;4.97;;;7.00;1.00;;;;;;9813715;30;20231;-87
2023/12/25 08:31:46;;;;;;;23.47;3.80;;;7.00;1.00;;;;;;9813689;30;20218;-80
2023/12/25 08:37:08;;;;;;;21.67;3.67;;;7.00;99.90;;;;;;9823241;30;20598;-88
2023/12/25 08:42:29;;;;;;;19.33;3.33;;;7.10;1.00;;;;;;9822935;30;20233;-88
2023/12/25 08:47:52;;;;;;;22.43;3.83;;;7.10;1.00;;;;;;9824959;30;20599;-80
2023/12/25 08:53:13;;;;;;;22.77;3.97;;;7.10;1.00;;;;;;9798572;30;20213;-85
2023/12/25 08:58:35;;;;;;;21.87;3.37;;;7.10;1.00;;;;;;9809894;30;20234;-81
2023/12/25 09:03:57;;;;;;;16.37;3.73;;;7.10;1.00;;;;;;9809580;30;20449;-80
2023/12/25 09:09:19;;;;;;;23.33;3.40;;;7.20;99.90;;;;;;9809632;30;20205;-79
2023/12/25 09:14:40;;;;;;;16.97;3.40;;;7.10;99.90;;;;;;9820728;30;20218;-81
2023/12/25 09:20:02;;;;;;;19.50;3.17;;;7.00;1.00;;;;;;9821586;30;20255;-85
2023/12/25 09:25:23;;;;;;;13.30;3.10;;;7.10;99.90;;;;;;9797903;30;20213;-82
2023/12/25 09:30:45;;;;;;;18.47;3.60;;;7.00;99.90;;;;;;9823179;30;20205;-80
2023/12/25 09:36:07;;;;;;;16.77;2.90;;;6.90;99.90;;;;;;9811705;30;20244;-80
2023/12/25 09:41:32;;;;;;;18.30;3.10;;;6.90;99.90;;;;;;9798231;30;20284;-88
2023/12/25 09:46:54;;;;;;;13.97;3.80;;;6.80;99.90;;;;;;9809544;30;20237;-83
2023/12/25 09:52:17;;;;;;;18.60;3.00;;;6.90;99.90;;;;;;9795299;30;20562;-79
2023/12/25 09:57:40;;;;;;;17.50;3.77;;;6.90;99.90;;;;;;9819477;30;20249;-79
2023/12/25 10:03:03;;;;;;;13.03;3.07;;;7.00;49.90;;;;;;9820464;30;20205;-79
2023/12/25 10:08:24;;;;;;;12.00;2.80;;;7.10;1.00;;;;;;9795709;30;20222;-87
2023/12/25 10:13:45;;;;;;;15.20;2.50;;;7.30;1.00;;;;;;9804170;30;20217;-84
2023/12/25 10:19:07;;;;;;;14.57;2.60;;;7.30;1.00;;;;;;9806372;30;20240;-86
2023/12/25 10:24:32;;;;;;;15.50;3.07;;;7.40;1.00;;;;;;9819802;30;20206;-84
2023/12/25 10:29:53;;;;;;;12.77;2.33;;;7.50;99.90;;;;;;9806676;30;20284;-85
2023/12/25 10:35:18;;;;;;;13.90;3.17;;;7.40;99.90;;;;;;9805561;30;20248;-78
2023/12/25 10:40:39;;;;;;;10.53;2.70;;;7.40;99.90;;;;;;9818002;30;20217;-80
2023/12/25 10:46:00;;;;;;;8.67;2.30;;;7.30;99.90;;;;;;9793619;30;20216;-84
2023/12/25 10:51:46;;;;;;;14.33;2.57;;;7.30;99.90;;;;;;9818282;30;20261;-80
2023/12/25 10:57:09;;;;;;;7.13;1.60;;;7.30;99.00;;;;;;9818914;30;20254;-79
2023/12/25 11:02:36;;;;;;;12.60;2.80;;;7.20;99.90;;;;;;9805247;30;20279;-82
2023/12/25 11:07:58;;;;;;;12.87;2.53;;;7.10;95.30;;;;;;9817273;30;20521;-87
2023/12/25 11:13:19;;;;;;;14.97;2.83;;;7.20;92.60;;;;;;9817724;30;20210;-82
2023/12/25 11:18:40;;;;;;;15.27;3.23;;;7.30;92.30;;;;;;9805263;30;20229;-79
2023/12/25 11:24:05;;;;;;;16.10;2.97;;;7.20;97.40;;;;;;9792391;30;20233;-81
2023/12/25 11:29:30;;;;;;;12.30;2.23;;;7.10;99.90;;;;;;9792665;30;20214;-83
2023/12/25 11:34:51;;;;;;;13.30;2.83;;;6.90;99.90;;;;;;9816145;30;20392;-79
2023/12/25 11:40:12;;;;;;;12.23;3.10;;;6.90;99.90;;;;;;9803694;30;20229;-79
2023/12/25 11:45:42;;;;;;;19.07;4.30;;;6.80;99.90;;;;;;9816814;30;20293;-80
2023/12/25 11:51:20;;;;;;;14.90;3.73;;;6.70;99.90;;;;;;9804083;30;20253;-81
2023/12/25 11:56:42;;;;;;;13.80;3.03;;;6.70;99.90;;;;;;9804178;30;20310;-81
2023/12/25 12:02:07;;;;;;;21.37;3.40;;;6.70;99.90;;;;;;9804145;30;20214;-79
2023/12/25 12:07:30;;;;;;;11.67;2.93;;;6.70;99.90;;;;;;9791990;30;20472;-88
2023/12/25 12:12:51;;;;;;;19.93;3.07;;;6.60;99.90;;;;;;9820446;30;20244;-83
2023/12/25 12:18:12;;;;;;;15.87;2.73;;;6.60;99.90;;;;;;9807916;30;20249;-82
2023/12/25 12:23:33;;;;;;;19.93;3.63;;;6.60;99.90;;;;;;9823684;30;20201;-79
2023/12/25 12:28:55;;;;;;;29.87;3.80;;;6.60;99.90;;;;;;9822907;30;20286;-79
2023/12/25 12:34:16;;;;;;;19.03;3.63;;;6.50;99.90;;;;;;9809932;30;20210;-84
2023/12/25 12:39:38;;;;;;;24.37;3.57;;;6.60;99.90;;;;;;9823030;30;20235;-85
2023/12/25 12:45:01;;;;;;;16.20;3.10;;;6.50;92.40;;;;;;9810438;30;20214;-86
2023/12/25 12:50:22;;;;;;;15.17;3.20;;;6.50;99.90;;;;;;9797169;30;20480;-84
2023/12/25 12:55:44;;;;;;;21.00;3.47;;;6.40;99.90;;;;;;9809676;30;20228;-79
2023/12/25 13:01:05;;;;;;;14.47;3.23;;;6.50;99.90;;;;;;9820952;30;20207;-83
2023/12/25 13:06:26;;;;;;;14.67;3.00;;;6.50;99.90;;;;;;9796862;30;20196;-87
2023/12/25 13:11:48;;;;;;;19.50;3.37;;;6.50;96.10;;;;;;9833133;30;20208;-79
2023/12/25 13:17:09;;;;;;;16.93;3.30;;;6.50;74.80;;;;;;9814770;30;20262;-79
2023/12/25 13:22:31;;;;;;;15.27;3.50;;;6.40;59.60;;;;;;9808449;30;20197;-79
2023/12/25 13:27:53;;;;;;;16.33;3.37;;;6.50;81.60;;;;;;9808286;30;20290;-80
2023/12/25 13:33:14;;;;;;;17.73;3.13;;;6.50;54.40;;;;;;9807337;30;20217;-80
2023/12/25 13:38:35;;;;;;;12.57;2.80;;;6.50;78.70;;;;;;9807875;30;20237;-79
2023/12/25 13:43:57;;;;;;;16.57;3.43;;;6.40;94.00;;;;;;9807984;30;20271;-79
2023/12/25 13:49:18;;;;;;;18.80;2.43;;;6.40;94.50;;;;;;9819301;30;20254;-81
2023/12/25 13:54:41;;;;;;;21.93;4.20;;;6.40;99.90;;;;;;9819530;30;20257;-79
2023/12/25 14:00:05;;;;;;;17.83;3.00;;;6.40;99.90;;;;;;9806765;30;20313;-80
2023/12/25 14:05:29;;;;;;;13.87;3.10;;;6.20;99.90;;;;;;9805971;30;20495;-79
2023/12/25 14:10:50;;;;;;;16.77;3.10;;;6.20;99.90;;;;;;9806948;30;20205;-81
2023/12/25 14:16:12;;;;;;;17.40;3.10;;;6.20;99.90;;;;;;9793871;30;20250;-80
2023/12/25 14:21:33;;;;;;;15.50;3.37;;;6.30;99.90;;;;;;9818476;30;20265;-79
2023/12/25 14:26:54;;;;;;;12.93;3.13;;;6.20;99.90;;;;;;9806044;30;20208;-79
2023/12/25 14:32:15;;;;;;;15.67;3.40;;;6.10;99.90;;;;;;9817338;30;20217;-79
2023/12/25 14:37:37;;;;;;;16.13;2.77;;;6.10;99.90;;;;;;9817508;30;20247;-81
2023/12/25 14:42:58;;;;;;;21.60;3.20;;;6.00;99.90;;;;;;9818210;30;20227;-79
2023/12/25 14:48:19;;;;;;;9.57;2.63;;;6.00;99.90;;;;;;9805175;30;20272;-79
2023/12/25 14:53:41;;;;;;;15.60;3.13;;;6.00;99.90;;;;;;9805395;30;20446;-79
2023/12/25 14:59:03;;;;;;;13.70;2.83;;;6.00;99.90;;;;;;9817771;30;20228;-79
2023/12/25 15:04:24;;;;;;;19.40;2.97;;;6.00;99.90;;;;;;9815931;30;20234;-81
2023/12/25 15:09:45;;;;;;;16.63;3.17;;;6.00;99.90;;;;;;9792715;30;20209;-79
2023/12/25 15:15:09;;;;;;;16.17;3.33;;;6.00;99.90;;;;;;9788259;30;20216;-78
2023/12/25 15:20:30;;;;;;;13.70;2.57;;;5.90;99.90;;;;;;9808268;30;20211;-79
2023/12/25 15:25:51;;;;;;;18.80;2.83;;;5.90;99.90;;;;;;9817259;30;20230;-84
2023/12/25 15:31:14;;;;;;;15.93;2.80;;;5.90;99.90;;;;;;9815844;30;20218;-80
2023/12/25 15:36:36;;;;;;;18.67;3.40;;;5.90;99.90;;;;;;9792573;30;20233;-81
2023/12/25 15:41:57;;;;;;;20.50;3.13;;;5.90;99.90;;;;;;9817213;30;20276;-83
2023/12/25 15:47:18;;;;;;;17.20;3.57;;;5.90;99.90;;;;;;9819429;30;20560;-83
2023/12/25 15:52:41;;;;;;;17.97;3.07;;;5.90;99.90;;;;;;9811348;30;20212;-79
2023/12/25 15:58:03;;;;;;;14.50;3.00;;;5.90;99.90;;;;;;9823539;30;20460;-79
2023/12/25 16:03:24;;;;;;;21.77;3.53;;;5.90;99.90;;;;;;9823242;30;20286;-79
2023/12/25 16:08:45;;;;;;;13.97;2.83;;;5.80;99.90;;;;;;9811560;30;20321;-79
2023/12/25 16:14:07;;;;;;;11.80;3.00;;;5.70;99.90;;;;;;9811248;30;20229;-81
2023/12/25 16:19:29;;;;;;;17.03;3.47;;;5.80;99.90;;;;;;9822941;30;20310;-83
2023/12/25 16:24:50;;;;;;;14.07;2.87;;;5.80;99.90;;;;;;9810719;30;20211;-80
2023/12/25 16:30:11;;;;;;;19.97;3.13;;;5.90;99.90;;;;;;9797047;30;20212;-78
2023/12/25 16:35:33;;;;;;;17.47;2.77;;;5.80;99.90;;;;;;9822544;30;20225;-80
2023/12/25 16:40:54;;;;;;;22.00;3.80;;;5.90;99.90;;;;;;9823719;30;20227;-79
2023/12/25 16:46:15;;;;;;;17.37;3.13;;;5.80;99.90;;;;;;9823111;30;20384;-80
2023/12/25 16:51:36;;;;;;;20.27;4.03;;;5.70;99.90;;;;;;9809591;30;20384;-79
2023/12/25 16:56:58;;;;;;;13.73;3.10;;;5.70;99.90;;;;;;9821820;30;20344;-83
2023/12/25 17:02:19;;;;;;;14.60;3.57;;;5.70;99.90;;;;;;9820767;30;20215;-88
2023/12/25 17:07:40;;;;;;;13.93;3.00;;;5.70;99.90;;;;;;9824196;30;20209;-83
2023/12/25 17:13:03;;;;;;;19.73;3.30;;;5.70;99.90;;;;;;9811042;30;20235;-79
2023/12/25 17:18:25;;;;;;;22.07;3.10;;;5.70;99.90;;;;;;9823078;30;20238;-86
2023/12/25 17:23:48;;;;;;;14.67;3.50;;;5.70;99.90;;;;;;9798480;30;20211;-82
2023/12/25 17:29:09;;;;;;;17.10;3.27;;;5.80;99.90;;;;;;9811098;30;20511;-88
2023/12/25 17:34:30;;;;;;;23.20;3.57;;;5.70;99.90;;;;;;9821982;30;20283;-79
2023/12/25 17:39:52;;;;;;;12.83;2.77;;;5.70;99.90;;;;;;9808234;30;20245;-80
2023/12/25 17:45:14;;;;;;;25.90;4.03;;;5.60;99.90;;;;;;9796650;30;20223;-82
2023/12/25 17:50:35;;;;;;;14.97;3.23;;;5.60;99.90;;;;;;9808234;30;20554;-79
2023/12/25 17:55:56;;;;;;;23.70;3.67;;;5.60;99.90;;;;;;9820982;30;20205;-80
2023/12/25 18:01:18;;;;;;;17.87;3.23;;;5.60;99.90;;;;;;9819831;30;20242;-88
2023/12/25 18:06:39;;;;;;;20.37;3.43;;;5.70;99.90;;;;;;9820434;30;20242;-90
2023/12/25 18:12:00;;;;;;;15.67;2.87;;;5.70;99.90;;;;;;9834116;30;20196;-87
2023/12/25 18:17:22;;;;;;;13.77;2.50;;;5.70;99.90;;;;;;9820662;30;20260;-87
2023/12/25 18:22:45;;;;;;;17.83;2.70;;;5.60;99.90;;;;;;9826699;30;20502;-87
2023/12/25 18:28:06;;;;;;;16.00;2.97;;;5.70;99.90;;;;;;9808376;30;20224;-88
2023/12/25 18:33:27;;;;;;;19.40;3.70;;;5.60;99.90;;;;;;9806574;30;20296;-88
2023/12/25 18:38:48;;;;;;;24.20;3.27;;;5.70;99.90;;;;;;9794260;30;20324;-84
2023/12/25 18:44:10;;;;;;;21.00;3.70;;;5.70;99.90;;;;;;9818444;30;20208;-80
2023/12/25 18:49:31;;;;;;;17.83;2.83;;;5.60;99.90;;;;;;9806452;30;20324;-86
2023/12/25 18:54:52;;;;;;;16.03;3.00;;;5.70;99.90;;;;;;9818970;30;20227;-79
2023/12/25 19:00:14;;;;;;;13.43;2.80;;;5.60;99.90;;;;;;9816550;30;20546;-79
2023/12/25 19:05:35;;;;;;;18.27;3.27;;;5.60;99.90;;;;;;9813520;30;20208;-85
2023/12/25 19:10:57;;;;;;;14.17;2.80;;;5.50;1.00;;;;;;9781658;30;20288;-87
2023/12/25 19:16:18;;;;;;;16.47;2.83;;;5.60;1.00;;;;;;9781024;30;20215;-87
2023/12/25 19:21:40;;;;;;;13.27;3.47;;;5.50;1.00;;;;;;9807941;30;20216;-79
2023/12/25 19:27:03;;;;;;;18.10;3.30;;;5.60;1.00;;;;;;9817092;30;20213;-82
2023/12/25 19:32:24;;;;;;;18.97;3.17;;;5.60;1.00;;;;;;9828377;30;20285;-79
2023/12/25 19:37:46;;;;;;;13.80;2.87;;;5.60;1.00;;;;;;9816563;30;20531;-79
2023/12/25 19:43:07;;;;;;;19.00;3.57;;;5.60;1.00;;;;;;9829397;30;20387;-79
2023/12/25 19:48:28;;;;;;;14.13;3.50;;;5.60;1.00;;;;;;9829095;30;20298;-82
2023/12/25 19:53:52;;;;;;;21.60;4.27;;;5.50;1.00;;;;;;9829425;30;20499;-81
2023/12/25 19:59:13;;;;;;;16.67;3.70;;;5.50;1.00;;;;;;9816536;30;20244;-82
2023/12/25 20:04:35;;;;;;;19.73;3.77;;;5.50;1.00;;;;;;9804073;30;20210;-79
2023/12/25 20:09:56;;;;;;;18.57;3.03;;;5.40;1.00;;;;;;9816598;30;20211;-85
2023/12/25 20:15:17;;;;;;;14.83;2.80;;;5.40;1.00;;;;;;9810526;30;20495;-80
2023/12/25 20:20:39;;;;;;;14.77;2.93;;;5.40;1.00;;;;;;9820000;30;20264;-81
2023/12/25 20:26:00;;;;;;;16.27;3.00;;;5.40;1.00;;;;;;9774055;30;20229;-81
2023/12/25 20:31:22;;;;;;;18.10;3.93;;;5.40;1.00;;;;;;9792115;30;20214;-81
2023/12/25 20:36:43;;;;;;;14.43;2.97;;;5.40;1.00;;;;;;9773666;30;20237;-81
2023/12/25 20:42:04;;;;;;;12.23;2.70;;;5.40;1.00;;;;;;9773743;30;20296;-80
2023/12/25 20:47:27;;;;;;;18.27;3.00;;;5.30;1.00;;;;;;9798224;30;20308;-79
2023/12/25 20:52:50;;;;;;;16.90;3.53;;;5.30;1.00;;;;;;9782501;30;20459;-80
2023/12/25 20:58:11;;;;;;;21.93;3.67;;;5.40;1.00;;;;;;9808673;30;20463;-79
2023/12/25 21:03:33;;;;;;;15.17;2.97;;;5.30;1.00;;;;;;9809112;30;20284;-79
2023/12/25 21:08:55;;;;;;;11.03;2.73;;;5.30;1.00;;;;;;9796899;30;20243;-86
2023/12/25 21:14:16;;;;;;;22.80;3.23;;;5.30;1.00;;;;;;9797023;30;20235;-87
2023/12/25 21:19:38;;;;;;;12.60;2.63;;;5.20;1.00;;;;;;9788043;30;20234;-79
2023/12/25 21:24:59;;;;;;;19.77;3.63;;;5.20;1.00;;;;;;9809336;30;20223;-80
2023/12/25 21:30:21;;;;;;;14.37;3.10;;;5.20;1.00;;;;;;9821783;30;20205;-79
2023/12/25 21:35:44;;;;;;;22.10;3.13;;;5.20;1.00;;;;;;9807676;30;20208;-79
2023/12/25 21:41:07;;;;;;;17.47;3.00;;;5.10;1.00;;;;;;9795475;30;20244;-82
2023/12/25 21:46:29;;;;;;;20.57;3.17;;;5.20;1.00;;;;;;9807134;30;20226;-82
2023/12/25 21:51:50;;;;;;;19.87;2.77;;;5.20;1.00;;;;;;9819484;30;20428;-87
2023/12/25 21:57:11;;;;;;;16.40;3.23;;;5.20;1.00;;;;;;9810895;30;20238;-85
2023/12/25 22:02:32;;;;;;;21.77;3.57;;;5.10;1.00;;;;;;9808077;30;20229;-79
2023/12/25 22:07:54;;;;;;;18.67;3.73;;;5.10;1.00;;;;;;9819939;30;20201;-89
2023/12/25 22:13:19;;;;;;;15.23;3.63;;;5.10;1.00;;;;;;9808080;30;20206;-86
2023/12/25 22:18:40;;;;;;;15.37;2.83;;;5.10;1.00;;;;;;9819136;30;20243;-84
2023/12/25 22:24:02;;;;;;;17.37;2.93;;;5.00;1.00;;;;;;9818930;30;20216;-84
2023/12/25 22:29:23;;;;;;;19.83;3.23;;;5.00;1.00;;;;;;9806614;30;20218;-79
2023/12/25 22:34:44;;;;;;;17.07;3.10;;;4.90;1.00;;;;;;9818396;30;20205;-81
2023/12/25 22:40:06;;;;;;;18.73;3.07;;;4.90;1.00;;;;;;9793764;30;20576;-79
2023/12/25 22:45:27;;;;;;;22.80;3.97;;;4.80;64.10;;;;;;9818057;30;20380;-79
2023/12/25 22:50:48;;;;;;;15.63;2.40;;;4.80;52.60;;;;;;9817816;30;20241;-79
2023/12/25 22:56:12;;;;;;;20.40;2.97;;;4.70;99.90;;;;;;9816079;30;20541;-79
2023/12/25 23:01:33;;;;;;;20.70;3.03;;;4.70;99.90;;;;;;9805452;30;20214;-80
2023/12/25 23:06:54;;;;;;;21.27;3.63;;;4.60;99.90;;;;;;9805230;30;20235;-80
2023/12/25 23:12:17;;;;;;;16.30;2.43;;;4.50;99.90;;;;;;9805305;30;20364;-80
2023/12/25 23:17:39;;;;;;;13.17;2.87;;;4.60;99.90;;;;;;9788814;30;20232;-78
2023/12/25 23:23:00;;;;;;;16.80;3.20;;;4.60;99.90;;;;;;9792132;30;20222;-79
2023/12/25 23:28:22;;;;;;;14.23;2.70;;;4.40;1.00;;;;;;9817403;30;20256;-81
2023/12/25 23:33:44;;;;;;;15.60;3.10;;;4.30;1.00;;;;;;9805001;30;20212;-79
2023/12/25 23:39:05;;;;;;;18.33;2.63;;;4.30;1.00;;;;;;9804542;30;20596;-78
2023/12/25 23:44:27;;;;;;;17.70;2.60;;;4.30;1.00;;;;;;9804785;30;20490;-79
2023/12/25 23:49:48;;;;;;;18.60;3.50;;;4.20;1.00;;;;;;9817346;30;20244;-88
2023/12/25 23:55:09;;;;;;;20.90;3.60;;;4.20;1.00;;;;;;9814157;30;20208;-86
